Rensselaer Falls, NY (13680)

10:56 PM EDT on August 31, 2015 (GMT -0400)
Martin Tract | | Change Station
CLOSE
Current Station
Personal Weather Station
Location: Canton, NY
Elevation: 407 ft
Nearby Weather Stations

Elev 407 ft 44.60 °N, 75.18 °W | Updated 14 minutes ago

Partly Cloudy
Partly Cloudy
66.6 °F
Feels Like 66.6 °F
N
0.0
Wind Variable Wind from NNW
Gusts 0.0 mph

Today
High -- | Low -- °F
--% Chance of Precip.
Yesterday
High -- | Low -- °F
Precip. -- in
6:22 AM 7:40 PM
Waning Gibbous, 92% visible
Pressure 30.01 in
Visibility 4.0 miles
Clouds Clear
Dew Point 63 °F
Humidity 89%
Rainfall 0.00 in
Snow Depth Not available.
UV 0 out of 12
Pollen 9.30 out of 12
Air Quality Not available.
Flu Activity Not available.
METAR KMSS 010253Z AUTO 00000KT 4SM BR CLR 17/15 A3001 RMK AO2 SLP160 T01670150 51010
Pressure 30.01 in
Visibility 4.0 miles
Clouds Clear
Dew Point 63 °F
Humidity 89%
Rainfall 0.00 in
Snow Depth Not available.
UV 0 out of 12
Pollen 9.30 out of 12
Air Quality Not available.
Flu Activity Not available.
METAR KMSS 010253Z AUTO 00000KT 4SM BR CLR 17/15 A3001 RMK AO2 SLP160 T01670150 51010

10-Day Weather Forecast

×

Almanac

Astronomy

Aug. 31, 2015 Rise Set
Actual Time
Civil Twilight
Nautical Twilight
Astronomical Twilight
Moon
Length of Visible Light
Length of Day
Tomorrow will be .
, % of the Moon is Illuminated

Today's Extremes

State Highs State Lows

Community

WunderPhotos

Upload Photos

1,851,459 photos uploaded!

WunderBlogs® & News

Nearby

Air Quality

  Air Quality AQ Index Pollutant
Not available.

Snow Depth

Station Depth Elevation

Earthquake Activity

City Distance Mag. Time & Date
Minimum magnitude displayed is 2.5.

Coastal Water Temperatures

Place Temperature

Stations

Nearby Weather Stations

Station Location Temp. Windchill Dew Point Humidity Wind Precip. Elev Updated Type